Genco Auvergne — V7ES3 — position and weather

sailwx.info

Track history (hours):
 
Tides and Currents Weather Stations Pressure Air Temp Water Temp Dewpoint Dewpoint Depression Visibility Wind Speed Wind Dir Waves Ship Positions

Genco Auvergne

Last reported at 2017-Sep-27 03:17 UTC. Time now 2017-Oct-17 07:51 UTC.
Position N 01°15' E 104°00'.
Warning: this ship's position is 20 days out of date.

Length 190 m; draft 13.4 m.

Type: Cargo ship. MMSI: 538002570.

Date/timePositionNaut miles runAvg speedWind from/ knotsBaromVisibWave heightAir tempDewpointWater temp
2017-Sep-27 03:17N 01°15' E 104°00'1 2.6
2017-Sep-27 03:00N 01°15' E 103°60'1 2.6
2017-Sep-27 02:30N 01°15' E 103°58'1 0.1
2017-Sep-26 21:43N 01°14' E 103°58'0 0.6
2017-Sep-26 21:29N 01°14' E 103°58'0 0.7
2017-Sep-26 21:00N 01°14' E 103°57'1 1.0
2017-Sep-26 20:30N 01°14' E 103°57'1 1.3
2017-Sep-26 20:00N 01°14' E 103°56'1 1.7
2017-Sep-26 19:28N 01°13' E 103°56'1 2.3
2017-Sep-26 19:00N 01°13' E 103°55'1 2.4
2017-Sep-26 18:30N 01°12' E 103°54'5 6.8
2017-Sep-26 17:43N 01°15' E 103°58'732.4
2017-Sep-26 17:30N 01°12' E 103°52'814.9
2017-Sep-26 16:58N 01°17' E 103°58'0 0.0
2017-Sep-26 16:19N 01°17' E 103°58'0 0.0
2017-Sep-26 15:58N 01°17' E 103°58'0 0.0
2017-Sep-26 15:28N 01°17' E 103°58'0 0.0
2017-Sep-26 14:58N 01°17' E 103°58'0 0.0
2017-Sep-26 14:25N 01°17' E 103°58'0 0.0
2017-Sep-26 13:07N 01°17' E 103°58'0 0.0
2017-Sep-26 12:49N 01°17' E 103°58'0 0.0
2017-Sep-26 11:10N 01°17' E 103°58'0 0.2
2017-Sep-26 10:45N 01°17' E 103°58'1 1.8
2017-Sep-26 10:19N 01°16' E 103°58'1 3.0
2017-Sep-26 10:00N 01°15' E 103°58'1 2.5
2017-Sep-26 09:27N 01°14' E 103°57'3 7.3
2017-Sep-26 09:00N 01°13' E 103°54'4 8.4
2017-Sep-26 08:30N 01°11' E 103°51'3 6.7
2017-Sep-26 08:00N 01°10' E 103°48'4 7.7
2017-Sep-26 07:30N 01°07' E 103°45'5 8.4
2017-Sep-26 06:56N 01°04' E 103°41'4 8.4
2017-Sep-26 06:30N 01°03' E 103°38'510.5
2017-Sep-26 05:59N 01°06' E 103°33'510.2
2017-Sep-26 05:30N 01°08' E 103°29'810.7
2017-Sep-26 04:42N 01°13' E 103°22'  
Track history (hours):
 
Tides and Currents Weather Stations Pressure Air Temp Water Temp Dewpoint Dewpoint Depression Visibility Wind Speed Wind Dir Waves Ship Positions

Genco Auvergne

Last reported at 2017-Sep-27 03:17 UTC. Time now 2017-Oct-17 07:51 UTC.
Position N 01°15' E 104°00'.
Warning: this ship's position is 20 days out of date.

Length 190 m; draft 13.4 m.

Type: Cargo ship. MMSI: 538002570.

Date/timePositionNaut miles runAvg speedWind from/ knotsBaromVisibWave heightAir tempDewpointWater temp
2017-Sep-27 03:17N 01°15' E 104°00'1 2.6
2017-Sep-27 03:00N 01°15' E 103°60'1 2.6
2017-Sep-27 02:30N 01°15' E 103°58'1 0.1
2017-Sep-26 21:43N 01°14' E 103°58'0 0.6
2017-Sep-26 21:29N 01°14' E 103°58'0 0.7
2017-Sep-26 21:00N 01°14' E 103°57'1 1.0
2017-Sep-26 20:30N 01°14' E 103°57'1 1.3
2017-Sep-26 20:00N 01°14' E 103°56'1 1.7
2017-Sep-26 19:28N 01°13' E 103°56'1 2.3
2017-Sep-26 19:00N 01°13' E 103°55'1 2.4
2017-Sep-26 18:30N 01°12' E 103°54'5 6.8
2017-Sep-26 17:43N 01°15' E 103°58'732.4
2017-Sep-26 17:30N 01°12' E 103°52'814.9
2017-Sep-26 16:58N 01°17' E 103°58'0 0.0
2017-Sep-26 16:19N 01°17' E 103°58'0 0.0
2017-Sep-26 15:58N 01°17' E 103°58'0 0.0
2017-Sep-26 15:28N 01°17' E 103°58'0 0.0
2017-Sep-26 14:58N 01°17' E 103°58'0 0.0
2017-Sep-26 14:25N 01°17' E 103°58'0 0.0
2017-Sep-26 13:07N 01°17' E 103°58'0 0.0
2017-Sep-26 12:49N 01°17' E 103°58'0 0.0
2017-Sep-26 11:10N 01°17' E 103°58'0 0.2
2017-Sep-26 10:45N 01°17' E 103°58'1 1.8
2017-Sep-26 10:19N 01°16' E 103°58'1 3.0
2017-Sep-26 10:00N 01°15' E 103°58'1 2.5
2017-Sep-26 09:27N 01°14' E 103°57'3 7.3
2017-Sep-26 09:00N 01°13' E 103°54'4 8.4
2017-Sep-26 08:30N 01°11' E 103°51'3 6.7
2017-Sep-26 08:00N 01°10' E 103°48'4 7.7
2017-Sep-26 07:30N 01°07' E 103°45'5 8.4
2017-Sep-26 06:56N 01°04' E 103°41'4 8.4
2017-Sep-26 06:30N 01°03' E 103°38'510.5
2017-Sep-26 05:59N 01°06' E 103°33'510.2
2017-Sep-26 05:30N 01°08' E 103°29'810.7
2017-Sep-26 04:42N 01°13' E 103°22'  

Dump ship's entire track history